sensor_id;sensor_type;location;lat;lon;timestamp;pressure;altitude;pressure_sealevel;temperature;humidity
71424;BME280;59240;51.370;-0.486;2023-05-07T00:01:13;101329.56;;;14.18;100.00
71424;BME280;59240;51.370;-0.486;2023-05-07T00:03:40;101334.81;;;14.18;100.00
71424;BME280;59240;51.370;-0.486;2023-05-07T00:06:08;101344.47;;;14.16;100.00
71424;BME280;59240;51.370;-0.486;2023-05-07T00:08:34;101341.03;;;14.14;100.00
71424;BME280;59240;51.370;-0.486;2023-05-07T00:11:01;101345.44;;;14.12;100.00
71424;BME280;59240;51.370;-0.486;2023-05-07T00:13:28;101344.75;;;14.07;100.00
71424;BME280;59240;51.370;-0.486;2023-05-07T00:15:57;101338.66;;;14.05;100.00
71424;BME280;59240;51.370;-0.486;2023-05-07T00:18:23;101327.53;;;13.97;100.00
71424;BME280;59240;51.370;-0.486;2023-05-07T00:20:50;101342.44;;;13.95;100.00
71424;BME280;59240;51.370;-0.486;2023-05-07T00:23:16;101344.28;;;13.91;100.00
71424;BME280;59240;51.370;-0.486;2023-05-07T00:25:43;101338.28;;;13.88;100.00
71424;BME280;59240;51.370;-0.486;2023-05-07T00:28:09;101342.75;;;13.83;100.00
71424;BME280;59240;51.370;-0.486;2023-05-07T00:30:36;101345.59;;;13.75;100.00
71424;BME280;59240;51.370;-0.486;2023-05-07T00:33:02;101343.16;;;13.67;100.00
71424;BME280;59240;51.370;-0.486;2023-05-07T00:35:29;101341.53;;;13.63;100.00
71424;BME280;59240;51.370;-0.486;2023-05-07T00:37:57;101351.25;;;13.58;100.00
71424;BME280;59240;51.370;-0.486;2023-05-07T00:40:24;101346.09;;;13.55;100.00
71424;BME280;59240;51.370;-0.486;2023-05-07T00:42:50;101334.16;;;13.44;100.00
71424;BME280;59240;51.370;-0.486;2023-05-07T00:45:27;101343.63;;;13.49;100.00
71424;BME280;59240;51.370;-0.486;2023-05-07T00:48:00;101354.06;;;13.51;100.00
71424;BME280;59240;51.370;-0.486;2023-05-07T00:50:28;101349.72;;;13.50;100.00
71424;BME280;59240;51.370;-0.486;2023-05-07T00:52:55;101355.91;;;13.47;100.00
71424;BME280;59240;51.370;-0.486;2023-05-07T00:55:23;101351.63;;;13.43;100.00
71424;BME280;59240;51.370;-0.486;2023-05-07T00:57:50;101351.75;;;13.38;100.00
71424;BME280;59240;51.370;-0.486;2023-05-07T01:00:17;101363.91;;;13.41;100.00
71424;BME280;59240;51.370;-0.486;2023-05-07T01:02:44;101350.09;;;13.34;100.00
71424;BME280;59240;51.370;-0.486;2023-05-07T01:05:14;101360.44;;;13.40;100.00
71424;BME280;59240;51.370;-0.486;2023-05-07T01:07:42;101361.38;;;13.36;100.00
71424;BME280;59240;51.370;-0.486;2023-05-07T01:10:10;101361.34;;;13.38;100.00
71424;BME280;59240;51.370;-0.486;2023-05-07T01:12:39;101350.97;;;13.35;100.00
71424;BME280;59240;51.370;-0.486;2023-05-07T01:15:07;101367.41;;;13.40;100.00
71424;BME280;59240;51.370;-0.486;2023-05-07T01:17:41;101361.28;;;13.41;100.00
71424;BME280;59240;51.370;-0.486;2023-05-07T01:20:09;101357.84;;;13.39;100.00
71424;BME280;59240;51.370;-0.486;2023-05-07T01:22:40;101359.47;;;13.43;100.00
71424;BME280;59240;51.370;-0.486;2023-05-07T01:25:07;101351.81;;;13.35;100.00
71424;BME280;59240;51.370;-0.486;2023-05-07T01:27:35;101355.94;;;13.46;100.00
71424;BME280;59240;51.370;-0.486;2023-05-07T01:30:04;101348.06;;;13.47;100.00
71424;BME280;59240;51.370;-0.486;2023-05-07T01:32:43;101347.25;;;13.45;100.00
71424;BME280;59240;51.370;-0.486;2023-05-07T01:35:17;101343.63;;;13.49;100.00
71424;BME280;59240;51.370;-0.486;2023-05-07T01:37:44;101346.34;;;13.46;100.00
71424;BME280;59240;51.370;-0.486;2023-05-07T01:40:13;101347.28;;;13.42;100.00
71424;BME280;59240;51.370;-0.486;2023-05-07T01:42:41;101324.03;;;13.31;100.00
71424;BME280;59240;51.370;-0.486;2023-05-07T01:45:09;101345.50;;;13.44;100.00
71424;BME280;59240;51.370;-0.486;2023-05-07T01:47:37;101345.44;;;13.47;100.00
71424;BME280;59240;51.370;-0.486;2023-05-07T01:50:06;101345.44;;;13.47;100.00
71424;BME280;59240;51.370;-0.486;2023-05-07T01:52:35;101352.38;;;13.48;100.00
71424;BME280;59240;51.370;-0.486;2023-05-07T01:55:02;101343.72;;;13.46;100.00
71424;BME280;59240;51.370;-0.486;2023-05-07T01:57:29;101342.00;;;13.45;100.00
71424;BME280;59240;51.370;-0.486;2023-05-07T01:59:55;101348.94;;;13.46;100.00
71424;BME280;59240;51.370;-0.486;2023-05-07T02:02:22;101351.59;;;13.45;100.00
71424;BME280;59240;51.370;-0.486;2023-05-07T02:04:48;101352.38;;;13.48;100.00
71424;BME280;59240;51.370;-0.486;2023-05-07T02:07:15;101352.28;;;13.51;100.00
71424;BME280;59240;51.370;-0.486;2023-05-07T02:09:42;101351.38;;;13.54;100.00
71424;BME280;59240;51.370;-0.486;2023-05-07T02:12:08;101347.91;;;13.53;100.00
71424;BME280;59240;51.370;-0.486;2023-05-07T02:14:35;101350.63;;;13.49;100.00
71424;BME280;59240;51.370;-0.486;2023-05-07T02:17:01;101338.53;;;13.43;100.00
71424;BME280;59240;51.370;-0.486;2023-05-07T02:19:28;101349.69;;;13.51;100.00
71424;BME280;59240;51.370;-0.486;2023-05-07T02:21:54;101343.56;;;13.52;100.00
71424;BME280;59240;51.370;-0.486;2023-05-07T02:24:21;101350.53;;;13.53;100.00
71424;BME280;59240;51.370;-0.486;2023-05-07T02:26:48;101344.56;;;13.47;100.00
71424;BME280;59240;51.370;-0.486;2023-05-07T02:29:14;101351.34;;;13.55;100.00
71424;BME280;59240;51.370;-0.486;2023-05-07T02:31:41;101353.09;;;13.55;100.00
71424;BME280;59240;51.370;-0.486;2023-05-07T02:34:07;101356.66;;;13.51;100.00
71424;BME280;59240;51.370;-0.486;2023-05-07T02:36:34;101367.00;;;13.57;100.00
71424;BME280;59240;51.370;-0.486;2023-05-07T02:39:01;101357.47;;;13.54;100.00
71424;BME280;59240;51.370;-0.486;2023-05-07T02:41:28;101367.00;;;13.57;100.00
71424;BME280;59240;51.370;-0.486;2023-05-07T02:43:55;101357.53;;;13.51;100.00
71424;BME280;59240;51.370;-0.486;2023-05-07T02:46:22;101360.13;;;13.53;100.00
71424;BME280;59240;51.370;-0.486;2023-05-07T02:48:48;101357.53;;;13.51;100.00
71424;BME280;59240;51.370;-0.486;2023-05-07T02:51:19;101368.72;;;13.58;100.00
71424;BME280;59240;51.370;-0.486;2023-05-07T02:53:46;101367.00;;;13.57;100.00
71424;BME280;59240;51.370;-0.486;2023-05-07T02:56:12;101362.00;;;13.48;100.00
71424;BME280;59240;51.370;-0.486;2023-05-07T02:58:39;101367.13;;;13.52;100.00
71424;BME280;59240;51.370;-0.486;2023-05-07T03:01:08;101378.31;;;13.57;100.00
71424;BME280;59240;51.370;-0.486;2023-05-07T03:03:35;101376.56;;;13.59;100.00
71424;BME280;59240;51.370;-0.486;2023-05-07T03:06:02;101361.00;;;13.53;100.00
71424;BME280;59240;51.370;-0.486;2023-05-07T03:08:29;101374.94;;;13.54;100.00
71424;BME280;59240;51.370;-0.486;2023-05-07T03:10:56;101368.78;;;13.55;100.00
71424;BME280;59240;51.370;-0.486;2023-05-07T03:13:22;101380.88;;;13.60;100.00
71424;BME280;59240;51.370;-0.486;2023-05-07T03:15:49;101380.03;;;13.58;100.00
71424;BME280;59240;51.370;-0.486;2023-05-07T03:18:16;101379.16;;;13.59;100.00
71424;BME280;59240;51.370;-0.486;2023-05-07T03:20:42;101359.28;;;13.52;100.00
71424;BME280;59240;51.370;-0.486;2023-05-07T03:23:09;101391.31;;;13.62;100.00
71424;BME280;59240;51.370;-0.486;2023-05-07T03:25:35;101391.31;;;13.62;100.00
71424;BME280;59240;51.370;-0.486;2023-05-07T03:28:02;101387.94;;;13.57;100.00
71424;BME280;59240;51.370;-0.486;2023-05-07T03:30:28;101390.50;;;13.58;100.00
71424;BME280;59240;51.370;-0.486;2023-05-07T03:32:55;101393.97;;;13.60;100.00
71424;BME280;59240;51.370;-0.486;2023-05-07T03:35:22;101404.28;;;13.66;100.00
71424;BME280;59240;51.370;-0.486;2023-05-07T03:37:48;101391.31;;;13.62;100.00
71424;BME280;59240;51.370;-0.486;2023-05-07T03:40:15;101392.16;;;13.62;100.00
71424;BME280;59240;51.370;-0.486;2023-05-07T03:42:41;101394.75;;;13.64;100.00
71424;BME280;59240;51.370;-0.486;2023-05-07T03:45:08;101407.72;;;13.68;100.00
71424;BME280;59240;51.370;-0.486;2023-05-07T03:47:35;101408.59;;;13.69;100.00
71424;BME280;59240;51.370;-0.486;2023-05-07T03:50:02;101409.59;;;13.63;100.00
71424;BME280;59240;51.370;-0.486;2023-05-07T03:52:28;101404.50;;;13.59;100.00
71424;BME280;59240;51.370;-0.486;2023-05-07T03:54:55;101406.22;;;13.58;100.00
71424;BME280;59240;51.370;-0.486;2023-05-07T03:57:21;101408.78;;;13.61;100.00
71424;BME280;59240;51.370;-0.486;2023-05-07T03:59:48;101400.22;;;13.55;100.00
71424;BME280;59240;51.370;-0.486;2023-05-07T04:02:14;101409.69;;;13.60;100.00
71424;BME280;59240;51.370;-0.486;2023-05-07T04:04:41;101406.06;;;13.64;100.00
71424;BME280;59240;51.370;-0.486;2023-05-07T04:07:08;101402.72;;;13.59;100.00
71424;BME280;59240;51.370;-0.486;2023-05-07T04:09:35;101420.88;;;13.65;100.00
71424;BME280;59240;51.370;-0.486;2023-05-07T04:12:01;101423.50;;;13.65;100.00
71424;BME280;59240;51.370;-0.486;2023-05-07T04:14:28;101435.63;;;13.69;100.00
71424;BME280;59240;51.370;-0.486;2023-05-07T04:16:54;101433.06;;;13.68;100.00
71424;BME280;59240;51.370;-0.486;2023-05-07T04:19:21;101425.25;;;13.65;100.00
71424;BME280;59240;51.370;-0.486;2023-05-07T04:21:48;101425.28;;;13.63;100.00
71424;BME280;59240;51.370;-0.486;2023-05-07T04:24:14;101433.91;;;13.68;100.00
71424;BME280;59240;51.370;-0.486;2023-05-07T04:26:41;101433.91;;;13.68;100.00
71424;BME280;59240;51.370;-0.486;2023-05-07T04:29:07;101440.91;;;13.68;100.00
71424;BME280;59240;51.370;-0.486;2023-05-07T04:31:34;101429.63;;;13.66;100.00
71424;BME280;59240;51.370;-0.486;2023-05-07T04:34:00;101434.81;;;13.67;100.00
71424;BME280;59240;51.370;-0.486;2023-05-07T04:36:27;101439.97;;;13.71;100.00
71424;BME280;59240;51.370;-0.486;2023-05-07T04:38:55;101432.19;;;13.67;100.00
71424;BME280;59240;51.370;-0.486;2023-05-07T04:41:22;101446.97;;;13.70;100.00
71424;BME280;59240;51.370;-0.486;2023-05-07T04:43:48;101451.34;;;13.69;100.00
71424;BME280;59240;51.370;-0.486;2023-05-07T04:46:15;101451.34;;;13.69;100.00
71424;BME280;59240;51.370;-0.486;2023-05-07T04:48:41;101444.44;;;13.65;100.00
71424;BME280;59240;51.370;-0.486;2023-05-07T04:51:08;101447.03;;;13.67;100.00
71424;BME280;59240;51.370;-0.486;2023-05-07T04:53:34;101466.03;;;13.75;100.00
71424;BME280;59240;51.370;-0.486;2023-05-07T04:56:01;101449.63;;;13.68;100.00
71424;BME280;59240;51.370;-0.486;2023-05-07T04:58:27;101467.81;;;13.75;100.00
71424;BME280;59240;51.370;-0.486;2023-05-07T05:00:58;101460.00;;;13.72;100.00
71424;BME280;59240;51.370;-0.486;2023-05-07T05:03:25;101473.09;;;13.73;100.00
71424;BME280;59240;51.370;-0.486;2023-05-07T05:05:52;101473.94;;;13.74;100.00
71424;BME280;59240;51.370;-0.486;2023-05-07T05:08:19;101472.22;;;13.73;100.00
71424;BME280;59240;51.370;-0.486;2023-05-07T05:10:46;101474.84;;;13.71;100.00
71424;BME280;59240;51.370;-0.486;2023-05-07T05:13:15;101478.31;;;13.73;100.00
71424;BME280;59240;51.370;-0.486;2023-05-07T05:15:41;101473.03;;;13.75;100.00
71424;BME280;59240;51.370;-0.486;2023-05-07T05:18:08;101455.00;;;13.62;100.00
71424;BME280;59240;51.370;-0.486;2023-05-07T05:20:35;101479.19;;;13.72;100.00
71424;BME280;59240;51.370;-0.486;2023-05-07T05:23:01;101475.66;;;13.75;100.00
71424;BME280;59240;51.370;-0.486;2023-05-07T05:25:28;101469.56;;;13.74;100.00
71424;BME280;59240;51.370;-0.486;2023-05-07T05:27:54;101468.63;;;13.77;100.00
71424;BME280;59240;51.370;-0.486;2023-05-07T05:30:21;101463.31;;;13.80;100.00
71424;BME280;59240;51.370;-0.486;2023-05-07T05:32:48;101464.25;;;13.77;100.00
71424;BME280;59240;51.370;-0.486;2023-05-07T05:35:15;101469.38;;;13.82;100.00
71424;BME280;59240;51.370;-0.486;2023-05-07T05:37:41;101472.00;;;13.82;100.00
71424;BME280;59240;51.370;-0.486;2023-05-07T05:40:08;101464.28;;;13.76;100.00
71424;BME280;59240;51.370;-0.486;2023-05-07T05:42:35;101477.16;;;13.85;100.00
71424;BME280;59240;51.370;-0.486;2023-05-07T05:45:02;101473.63;;;13.86;100.00
71424;BME280;59240;51.370;-0.486;2023-05-07T05:47:29;101478.03;;;13.84;100.00
71424;BME280;59240;51.370;-0.486;2023-05-07T05:49:55;101490.13;;;13.89;100.00
71424;BME280;59240;51.370;-0.486;2023-05-07T05:52:22;101478.84;;;13.86;100.00
71424;BME280;59240;51.370;-0.486;2023-05-07T05:54:50;101497.94;;;13.91;100.00
71424;BME280;59240;51.370;-0.486;2023-05-07T05:57:16;101500.50;;;13.94;100.00
71424;BME280;59240;51.370;-0.486;2023-05-07T05:59:43;101507.44;;;13.96;100.00
71424;BME280;59240;51.370;-0.486;2023-05-07T06:02:10;101517.91;;;13.96;100.00
71424;BME280;59240;51.370;-0.486;2023-05-07T06:04:36;101516.94;;;13.99;100.00
71424;BME280;59240;51.370;-0.486;2023-05-07T06:07:03;101497.91;;;13.94;100.00
71424;BME280;59240;51.370;-0.486;2023-05-07T06:09:29;101504.84;;;13.95;100.00
71424;BME280;59240;51.370;-0.486;2023-05-07T06:11:56;101514.28;;;14.02;100.00
71424;BME280;59240;51.370;-0.486;2023-05-07T06:14:26;101497.03;;;13.93;100.00
71424;BME280;59240;51.370;-0.486;2023-05-07T06:16:52;101517.75;;;14.03;100.00
71424;BME280;59240;51.370;-0.486;2023-05-07T06:19:19;101530.75;;;14.07;100.00
71424;BME280;59240;51.370;-0.486;2023-05-07T06:21:49;101534.25;;;14.06;100.00
71424;BME280;59240;51.370;-0.486;2023-05-07T06:24:16;101520.53;;;13.96;100.00
71424;BME280;59240;51.370;-0.486;2023-05-07T06:26:43;101522.19;;;13.99;100.00
71424;BME280;59240;51.370;-0.486;2023-05-07T06:29:09;101534.34;;;14.03;100.00
71424;BME280;59240;51.370;-0.486;2023-05-07T06:31:36;101534.25;;;14.06;100.00
71424;BME280;59240;51.370;-0.486;2023-05-07T06:34:02;101538.66;;;14.04;100.00
71424;BME280;59240;51.370;-0.486;2023-05-07T06:36:29;101540.34;;;14.07;100.00
71424;BME280;59240;51.370;-0.486;2023-05-07T06:38:56;101544.66;;;14.09;100.00
71424;BME280;59240;51.370;-0.486;2023-05-07T06:41:22;101541.16;;;14.10;100.00
71424;BME280;59240;51.370;-0.486;2023-05-07T06:43:49;101545.47;;;14.11;100.00
71424;BME280;59240;51.370;-0.486;2023-05-07T06:46:15;101537.56;;;14.14;100.00
71424;BME280;59240;51.370;-0.486;2023-05-07T06:48:42;101537.63;;;14.11;100.00
71424;BME280;59240;51.370;-0.486;2023-05-07T06:51:09;101541.06;;;14.13;100.00
71424;BME280;59240;51.370;-0.486;2023-05-07T06:53:35;101541.81;;;14.18;100.00
71424;BME280;59240;51.370;-0.486;2023-05-07T06:56:02;101537.31;;;14.23;100.00
71424;BME280;59240;51.370;-0.486;2023-05-07T06:58:28;101541.56;;;14.29;100.00
71424;BME280;59240;51.370;-0.486;2023-05-07T07:00:55;101530.13;;;14.32;100.00
71424;BME280;59240;51.370;-0.486;2023-05-07T07:03:21;101542.16;;;14.39;100.00
71424;BME280;59240;51.370;-0.486;2023-05-07T07:05:51;101549.88;;;14.45;100.00
71424;BME280;59240;51.370;-0.486;2023-05-07T07:08:18;101535.13;;;14.41;100.00
71424;BME280;59240;51.370;-0.486;2023-05-07T07:10:47;101552.47;;;14.48;100.00
71424;BME280;59240;51.370;-0.486;2023-05-07T07:13:14;101547.13;;;14.51;100.00
71424;BME280;59240;51.370;-0.486;2023-05-07T07:15:40;101532.38;;;14.48;100.00
71424;BME280;59240;51.370;-0.486;2023-05-07T07:18:07;101547.78;;;14.59;100.00
71424;BME280;59240;51.370;-0.486;2023-05-07T07:20:34;101536.56;;;14.54;100.00
71424;BME280;59240;51.370;-0.486;2023-05-07T07:23:01;101545.97;;;14.63;100.00
71424;BME280;59240;51.370;-0.486;2023-05-07T07:25:27;101552.78;;;14.68;100.00
71424;BME280;59240;51.370;-0.486;2023-05-07T07:27:53;101546.66;;;14.69;100.00
71424;BME280;59240;51.370;-0.486;2023-05-07T07:30:20;101543.88;;;14.75;100.00
71424;BME280;59240;51.370;-0.486;2023-05-07T07:32:47;101553.38;;;14.80;100.00
71424;BME280;59240;51.370;-0.486;2023-05-07T07:35:13;101569.84;;;14.85;100.00
71424;BME280;59240;51.370;-0.486;2023-05-07T07:37:40;101562.94;;;14.81;100.00
71424;BME280;59240;51.370;-0.486;2023-05-07T07:40:07;101556.81;;;14.82;100.00
71424;BME280;59240;51.370;-0.486;2023-05-07T07:42:33;101567.97;;;14.90;100.00
71424;BME280;59240;51.370;-0.486;2023-05-07T07:45:00;101559.91;;;14.96;100.00
71424;BME280;59240;51.370;-0.486;2023-05-07T07:47:27;101570.22;;;15.02;100.00
71424;BME280;59240;51.370;-0.486;2023-05-07T07:49:53;101574.50;;;15.06;100.00
71424;BME280;59240;51.370;-0.486;2023-05-07T07:52:20;101557.69;;;15.13;100.00
71424;BME280;59240;51.370;-0.486;2023-05-07T07:54:46;101564.38;;;15.23;100.00
71424;BME280;59240;51.370;-0.486;2023-05-07T07:57:13;101557.06;;;15.35;100.00
71424;BME280;59240;51.370;-0.486;2023-05-07T07:59:39;101561.56;;;15.31;100.00
71424;BME280;59240;51.370;-0.486;2023-05-07T08:02:06;101564.75;;;15.41;100.00
71424;BME280;59240;51.370;-0.486;2023-05-07T08:04:32;101569.78;;;15.48;100.00
71424;BME280;59240;51.370;-0.486;2023-05-07T08:06:59;101578.34;;;15.55;100.00
71424;BME280;59240;51.370;-0.486;2023-05-07T08:09:26;101573.81;;;15.60;100.00
71424;BME280;59240;51.370;-0.486;2023-05-07T08:11:53;101568.56;;;15.60;100.00
71424;BME280;59240;51.370;-0.486;2023-05-07T08:14:19;101590.28;;;15.67;100.00
71424;BME280;59240;51.370;-0.486;2023-05-07T08:16:47;101585.97;;;15.64;100.00
71424;BME280;59240;51.370;-0.486;2023-05-07T08:19:14;101599.75;;;15.72;100.00
71424;BME280;59240;51.370;-0.486;2023-05-07T08:21:40;101590.78;;;15.79;100.00
71424;BME280;59240;51.370;-0.486;2023-05-07T08:24:07;101583.81;;;15.78;100.00
71424;BME280;59240;51.370;-0.486;2023-05-07T08:26:33;101605.94;;;15.98;100.00
71424;BME280;59240;51.370;-0.486;2023-05-07T08:29:02;101592.72;;;16.01;100.00
71424;BME280;59240;51.370;-0.486;2023-05-07T08:31:28;101593.53;;;16.03;100.00
71424;BME280;59240;51.370;-0.486;2023-05-07T08:33:55;101600.50;;;16.04;100.00
71424;BME280;59240;51.370;-0.486;2023-05-07T08:36:22;101598.59;;;16.09;100.00
71424;BME280;59240;51.370;-0.486;2023-05-07T08:38:48;101593.34;;;16.09;100.00
71424;BME280;59240;51.370;-0.486;2023-05-07T08:41:15;101602.69;;;16.18;100.00
71424;BME280;59240;51.370;-0.486;2023-05-07T08:43:47;101603.47;;;16.21;100.00
71424;BME280;59240;51.370;-0.486;2023-05-07T08:46:21;101606.56;;;16.34;100.00
71424;BME280;59240;51.370;-0.486;2023-05-07T08:48:48;101606.41;;;16.38;100.00
71424;BME280;59240;51.370;-0.486;2023-05-07T08:51:17;101613.16;;;16.46;100.00
71424;BME280;59240;51.370;-0.486;2023-05-07T08:53:45;101615.78;;;16.47;100.00
71424;BME280;59240;51.370;-0.486;2023-05-07T08:56:12;101604.41;;;16.45;100.00
71424;BME280;59240;51.370;-0.486;2023-05-07T08:58:39;101608.56;;;16.52;100.00
71424;BME280;59240;51.370;-0.486;2023-05-07T09:01:12;101619.03;;;16.54;100.00
71424;BME280;59240;51.370;-0.486;2023-05-07T09:03:40;101620.78;;;16.55;100.00
71424;BME280;59240;51.370;-0.486;2023-05-07T09:06:06;101623.28;;;16.58;100.00
71424;BME280;59240;51.370;-0.486;2023-05-07T09:08:33;101629.25;;;16.63;100.00
71424;BME280;59240;51.370;-0.486;2023-05-07T09:11:01;101623.09;;;16.64;100.00
71424;BME280;59240;51.370;-0.486;2023-05-07T09:13:28;101623.94;;;16.64;100.00
71424;BME280;59240;51.370;-0.486;2023-05-07T09:15:56;101612.69;;;16.61;100.00
71424;BME280;59240;51.370;-0.486;2023-05-07T09:18:25;101635.16;;;16.71;100.00
71424;BME280;59240;51.370;-0.486;2023-05-07T09:20:52;101626.53;;;16.66;100.00
71424;BME280;59240;51.370;-0.486;2023-05-07T09:23:20;101649.13;;;16.73;100.00
71424;BME280;59240;51.370;-0.486;2023-05-07T09:25:47;101650.81;;;16.74;100.00
71424;BME280;59240;51.370;-0.486;2023-05-07T09:28:13;101650.88;;;16.73;100.00
71424;BME280;59240;51.370;-0.486;2023-05-07T09:30:40;101654.66;;;16.64;100.00
71424;BME280;59240;51.370;-0.486;2023-05-07T09:33:06;101655.56;;;16.63;100.00
71424;BME280;59240;51.370;-0.486;2023-05-07T09:35:33;101654.78;;;16.61;100.00
71424;BME280;59240;51.370;-0.486;2023-05-07T09:38:01;101658.22;;;16.63;100.00
71424;BME280;59240;51.370;-0.486;2023-05-07T09:40:30;101652.16;;;16.59;100.00
71424;BME280;59240;51.370;-0.486;2023-05-07T09:43:08;101659.81;;;16.67;100.00
71424;BME280;59240;51.370;-0.486;2023-05-07T09:45:36;101651.03;;;16.68;100.00
71424;BME280;59240;51.370;-0.486;2023-05-07T09:48:05;101655.81;;;16.83;100.00
71424;BME280;59240;51.370;-0.486;2023-05-07T09:50:36;101667.84;;;16.90;100.00
71424;BME280;59240;51.370;-0.486;2023-05-07T09:53:09;101660.75;;;16.92;100.00
71424;BME280;59240;51.370;-0.486;2023-05-07T09:55:37;101661.50;;;16.96;100.00
71424;BME280;59240;51.370;-0.486;2023-05-07T09:58:04;101660.53;;;16.99;100.00
71424;BME280;59240;51.370;-0.486;2023-05-07T10:00:32;101657.91;;;16.99;100.00
71424;BME280;59240;51.370;-0.486;2023-05-07T10:03:00;101663.03;;;17.02;100.00
71424;BME280;59240;51.370;-0.486;2023-05-07T10:05:28;101665.66;;;17.03;100.00
71424;BME280;59240;51.370;-0.486;2023-05-07T10:07:55;101670.38;;;17.18;100.00
71424;BME280;59240;51.370;-0.486;2023-05-07T10:10:23;101667.41;;;17.28;100.00
71424;BME280;59240;51.370;-0.486;2023-05-07T10:12:50;101678.34;;;17.40;100.00
71424;BME280;59240;51.370;-0.486;2023-05-07T10:15:18;101667.72;;;17.43;100.00
71424;BME280;59240;51.370;-0.486;2023-05-07T10:17:45;101677.13;;;17.50;100.00
71424;BME280;59240;51.370;-0.486;2023-05-07T10:20:11;101680.63;;;17.51;99.84
71424;BME280;59240;51.370;-0.486;2023-05-07T10:22:43;101685.41;;;17.63;100.00
71424;BME280;59240;51.370;-0.486;2023-05-07T10:25:30;101687.81;;;17.71;100.00
71424;BME280;59240;51.370;-0.486;2023-05-07T10:28:00;101679.63;;;17.79;100.00
71424;BME280;59240;51.370;-0.486;2023-05-07T10:30:48;101687.25;;;17.86;100.00
71424;BME280;59240;51.370;-0.486;2023-05-07T10:33:23;101677.25;;;17.94;100.00
71424;BME280;59240;51.370;-0.486;2023-05-07T10:35:50;101670.81;;;18.01;99.21
71424;BME280;59240;51.370;-0.486;2023-05-07T10:38:16;101679.84;;;18.18;98.72
71424;BME280;59240;51.370;-0.486;2023-05-07T10:40:43;101695.44;;;18.24;97.81
71424;BME280;59240;51.370;-0.486;2023-05-07T10:43:13;101696.34;;;18.23;97.84
71424;BME280;59240;51.370;-0.486;2023-05-07T10:45:40;101699.84;;;18.23;97.77
71424;BME280;59240;51.370;-0.486;2023-05-07T10:48:16;101697.59;;;18.14;100.00
71424;BME280;59240;51.370;-0.486;2023-05-07T10:50:46;101704.28;;;18.23;97.53
71424;BME280;59240;51.370;-0.486;2023-05-07T10:55:50;101714.13;;;18.18;100.00
71424;BME280;59240;51.370;-0.486;2023-05-07T10:58:27;101720.00;;;18.02;100.00
71424;BME280;59240;51.370;-0.486;2023-05-07T11:01:02;101720.13;;;17.99;98.96
71424;BME280;59240;51.370;-0.486;2023-05-07T11:03:29;101728.06;;;17.98;96.69
71424;BME280;59240;51.370;-0.486;2023-05-07T11:06:10;101729.75;;;18.00;100.00
71424;BME280;59240;51.370;-0.486;2023-05-07T11:08:56;101740.19;;;18.03;100.00
71424;BME280;59240;51.370;-0.486;2023-05-07T11:11:46;101742.81;;;18.03;100.00
71424;BME280;59240;51.370;-0.486;2023-05-07T11:17:10;101741.00;;;18.06;97.69
71424;BME280;59240;51.370;-0.486;2023-05-07T11:19:53;101739.50;;;17.98;100.00
71424;BME280;59240;51.370;-0.486;2023-05-07T11:25:00;101751.88;;;17.96;96.65
71424;BME280;59240;51.370;-0.486;2023-05-07T11:27:26;101768.59;;;17.95;96.79
71424;BME280;59240;51.370;-0.486;2023-05-07T11:29:53;101754.16;;;17.82;96.47
71424;BME280;59240;51.370;-0.486;2023-05-07T11:32:31;101763.19;;;17.75;100.00
71424;BME280;59240;51.370;-0.486;2023-05-07T11:35:00;101753.81;;;17.66;96.54
71424;BME280;59240;51.370;-0.486;2023-05-07T11:37:59;101751.47;;;17.59;100.00
71424;BME280;59240;51.370;-0.486;2023-05-07T11:40:29;101733.59;;;17.67;97.07
71424;BME280;59240;51.370;-0.486;2023-05-07T11:43:12;101731.34;;;17.81;96.48
71424;BME280;59240;51.370;-0.486;2023-05-07T11:45:39;101765.38;;;18.11;96.46
71424;BME280;59240;51.370;-0.486;2023-05-07T11:48:05;101757.44;;;18.12;96.51
71424;BME280;59240;51.370;-0.486;2023-05-07T11:50:32;101763.44;;;18.16;95.39
71424;BME280;59240;51.370;-0.486;2023-05-07T11:52:58;101761.28;;;18.27;94.89
71424;BME280;59240;51.370;-0.486;2023-05-07T11:55:25;101762.53;;;18.17;94.99
71424;BME280;59240;51.370;-0.486;2023-05-07T11:57:52;101758.81;;;18.22;94.64
71424;BME280;59240;51.370;-0.486;2023-05-07T12:00:18;101754.63;;;18.39;95.26
71424;BME280;59240;51.370;-0.486;2023-05-07T12:02:45;101750.44;;;18.56;95.19
71424;BME280;59240;51.370;-0.486;2023-05-07T12:05:12;101756.03;;;18.71;94.17
71424;BME280;59240;51.370;-0.486;2023-05-07T12:07:39;101754.19;;;18.73;94.53
71424;BME280;59240;51.370;-0.486;2023-05-07T12:10:08;101760.94;;;18.80;94.35
71424;BME280;59240;51.370;-0.486;2023-05-07T12:12:40;101738.09;;;18.79;100.00
71424;BME280;59240;51.370;-0.486;2023-05-07T12:15:09;101754.31;;;18.92;93.46
71424;BME280;59240;51.370;-0.486;2023-05-07T12:17:37;101749.78;;;18.95;93.60
71424;BME280;59240;51.370;-0.486;2023-05-07T12:20:04;101752.94;;;19.03;92.94
71424;BME280;59240;51.370;-0.486;2023-05-07T12:22:31;101751.09;;;19.05;92.30
71424;BME280;59240;51.370;-0.486;2023-05-07T12:25:00;101757.13;;;19.09;93.37
71424;BME280;59240;51.370;-0.486;2023-05-07T12:27:40;101761.25;;;19.14;100.00
71424;BME280;59240;51.370;-0.486;2023-05-07T12:30:09;101767.03;;;19.24;100.00
71424;BME280;59240;51.370;-0.486;2023-05-07T12:32:36;101746.00;;;19.21;91.76
71424;BME280;59240;51.370;-0.486;2023-05-07T12:35:05;101756.28;;;19.29;98.06
71424;BME280;59240;51.370;-0.486;2023-05-07T12:37:32;101771.91;;;19.33;90.87
71424;BME280;59240;51.370;-0.486;2023-05-07T12:40:09;101763.63;;;19.43;100.00
71424;BME280;59240;51.370;-0.486;2023-05-07T12:42:38;101763.53;;;19.44;91.05